Gaylord, MI (49735)

3:05 AM EST on January 23, 2018 (GMT -0500)
Castlewood Drive | | Change Station
Active Advisory: Winter Weather Advisory

Elev 1315 ft 44.99 °N, 84.66 °W | Updated 9 minutes ago

Light Freezing Rain
Light Freezing Rain Mist
30.6 °F
Feels Like 31 °F
N
0.0
Wind Variable Wind from East
Gusts 0.0 mph

Today
High -- | Low -- °F
--% Chance of Precip.
Yesterday
High -- | Low -- °F
Precip. -- in
Pressure 29.48 in
Visibility 6.0 miles
Clouds Overcast 400 ft
Windchill 31 °F
Dew Point 30 °F
Humidity 96%
Rainfall 0.00 in
Snow Depth Not available.
8:07 AM 5:34 PM
Waxing Crescent, 33% visible
METAR KGLR 230753Z AUTO 04006KT 6SM -FZRA BR OVC004 M02/M02 A2944 RMK AO2 UPB44E53FZRAB53 SLP983 P0000 I1001 T10171017 $
Pressure 29.48 in
Visibility 6.0 miles
Clouds Overcast 400 ft
Windchill 31 °F
Dew Point 30 °F
Humidity 96%
Rainfall 0.00 in
Snow Depth Not available.
8:07 AM 5:34 PM
Waxing Crescent, 33% visible
METAR KGLR 230753Z AUTO 04006KT 6SM -FZRA BR OVC004 M02/M02 A2944 RMK AO2 UPB44E53FZRAB53 SLP983 P0000 I1001 T10171017 $

Get Your Daily Forecast Email!

Thanks for signing up!

Be on the lookout for a verification email in your inbox.

You'll start receiving severe weather alerts in your inbox..

×

10-Day Weather Forecast

Almanac

Astronomy

Jan. 23, 2018 Rise Set
Actual Time
Civil Twilight
Nautical Twilight
Astronomical Twilight
Moon
Length of Visible Light
Length of Day
Tomorrow will be .
, % of the Moon is Illuminated

Today's Extremes

State Highs State Lows

Community

WunderPhotos

Category 6

Welcome to Category 6. This is the collective home for Weather Underground's featured writeups by Dr. Jeff Masters (right), Bob Henson (left), Chris Burt, and other regular contributors.

Nearby

Air Quality

  Air Quality AQ Index Pollutant
Not available.

Snow Depth

Station Depth Elevation

Earthquake Activity

City Distance Mag. Time & Date
Minimum magnitude displayed is 2.5.

Coastal Water Temperatures

Place Temperature

Stations

Nearby Weather Stations

Station Location Temp. Windchill Dew Point Humidity Wind Precip. Elev Updated Type
                   

Watches & Warnings

Winter Weather Advisory
Issued: 9:12 PM EST Jan. 22, 2018 – National Weather Service

... Winter Weather Advisory remains in effect until 5 am EST
Tuesday...

* what... freezing rain occurring. The ice will result in
difficult travel conditions. Additional ice accumulations of
up to one tenth of an inch are expected.

* Where... portions of northern lower Michigan.

* When... until 5 am EST Tuesday.

Precautionary/preparedness actions...

A Winter Weather Advisory means that periods of freezing rain
will cause travel difficulties. Be prepared for slippery roads.
Slow down and use caution while driving.